createdAt,value
2023-02-15T00:00:57.014Z,1026.48
2023-02-15T00:01:57.088Z,1026.49
2023-02-15T00:02:57.049Z,1026.47
2023-02-15T00:03:57.040Z,1026.51
2023-02-15T00:04:57.047Z,1026.50
2023-02-15T00:05:57.057Z,1026.55
2023-02-15T00:06:57.063Z,1026.54
2023-02-15T00:07:57.071Z,1026.56
2023-02-15T00:08:57.077Z,1026.57
2023-02-15T00:09:57.093Z,1026.58
2023-02-15T00:10:57.095Z,1026.59
2023-02-15T00:11:57.102Z,1026.59
2023-02-15T00:12:57.109Z,1026.58
2023-02-15T00:13:57.118Z,1026.55
2023-02-15T00:14:57.126Z,1026.58
2023-02-15T00:15:57.132Z,1026.55
2023-02-15T00:16:57.143Z,1026.51
2023-02-15T00:17:57.150Z,1026.44
2023-02-15T00:18:57.163Z,1026.41
2023-02-15T00:19:57.170Z,1026.43
2023-02-15T00:20:57.187Z,1026.43
2023-02-15T00:21:57.182Z,1026.41
2023-02-15T00:22:57.192Z,1026.38
2023-02-15T00:23:57.199Z,1026.34
2023-02-15T00:24:57.205Z,1026.37
2023-02-15T00:25:57.214Z,1026.36
2023-02-15T00:26:57.224Z,1026.35
2023-02-15T00:27:57.229Z,1026.32
2023-02-15T00:28:57.236Z,1026.34
2023-02-15T00:29:57.264Z,1026.32
2023-02-15T00:30:57.285Z,1026.34
2023-02-15T00:31:57.263Z,1026.33
2023-02-15T00:32:57.270Z,1026.31
2023-02-15T00:33:57.277Z,1026.33
2023-02-15T00:34:57.287Z,1026.33
2023-02-15T00:35:57.293Z,1026.32
2023-02-15T00:36:57.302Z,1026.32
2023-02-15T00:37:57.312Z,1026.30
2023-02-15T00:38:57.324Z,1026.35
2023-02-15T00:39:57.327Z,1026.36
2023-02-15T00:40:57.333Z,1026.37
2023-02-15T00:41:57.347Z,1026.32
2023-02-15T00:42:57.349Z,1026.35
2023-02-15T00:43:57.355Z,1026.35
2023-02-15T00:44:57.370Z,1026.36
2023-02-15T00:45:57.389Z,1026.35
2023-02-15T00:46:57.393Z,1026.35
2023-02-15T00:47:57.389Z,1026.34
2023-02-15T00:48:57.397Z,1026.32
2023-02-15T00:49:57.404Z,1026.32
2023-02-15T00:50:57.416Z,1026.32
2023-02-15T00:51:57.420Z,1026.32
2023-02-15T00:52:57.438Z,1026.35
2023-02-15T00:53:57.440Z,1026.32
2023-02-15T00:54:57.441Z,1026.32
2023-02-15T00:55:57.452Z,1026.33
2023-02-15T00:56:57.458Z,1026.30
2023-02-15T00:57:57.468Z,1026.28
2023-02-15T00:58:57.473Z,1026.26
2023-02-15T00:59:57.482Z,1026.22
2023-02-15T01:00:57.489Z,1026.23
2023-02-15T01:01:57.500Z,1026.25
2023-02-15T01:02:57.505Z,1026.26
2023-02-15T01:03:57.529Z,1026.23
2023-02-15T01:04:57.522Z,1026.23
2023-02-15T01:05:57.526Z,1026.21
2023-02-15T01:06:57.537Z,1026.20
2023-02-15T01:07:57.548Z,1026.21
2023-02-15T01:08:57.552Z,1026.21
2023-02-15T01:09:57.559Z,1026.22
2023-02-15T01:10:57.567Z,1026.19
2023-02-15T01:11:57.576Z,1026.16
2023-02-15T01:12:57.582Z,1026.10
2023-02-15T01:13:57.611Z,1026.17
2023-02-15T01:14:57.599Z,1026.13
2023-02-15T01:15:57.612Z,1026.12
2023-02-15T01:16:57.614Z,1026.12
2023-02-15T01:17:57.626Z,1026.10
2023-02-15T01:18:57.629Z,1026.12
2023-02-15T01:19:57.637Z,1026.13
2023-02-15T01:20:57.654Z,1026.12
2023-02-15T01:21:57.654Z,1026.17
2023-02-15T01:22:57.679Z,1026.10
2023-02-15T01:23:57.685Z,1026.06
2023-02-15T01:24:57.680Z,1026.03
2023-02-15T01:25:57.684Z,1026.05
2023-02-15T01:26:57.691Z,1026.02
2023-02-15T01:27:57.700Z,1026.02
2023-02-15T01:28:57.706Z,1026.00
2023-02-15T01:29:57.741Z,1025.95
2023-02-15T01:30:57.830Z,1025.98
2023-02-15T01:31:57.862Z,1025.96
2023-02-15T01:32:57.738Z,1025.94
2023-02-15T01:33:57.749Z,1025.90
2023-02-15T01:34:57.754Z,1025.88
2023-02-15T01:35:57.758Z,1025.91
2023-02-15T01:36:57.766Z,1025.83
2023-02-15T01:37:57.776Z,1025.84
2023-02-15T01:38:57.782Z,1025.84
2023-02-15T01:39:57.792Z,1025.84
2023-02-15T01:40:57.797Z,1025.81
2023-02-15T01:41:57.809Z,1025.84
2023-02-15T01:42:57.822Z,1025.86
2023-02-15T01:43:57.837Z,1025.83
2023-02-15T01:44:57.827Z,1025.79
2023-02-15T01:45:57.857Z,1025.82
2023-02-15T01:46:57.846Z,1025.75
2023-02-15T01:47:57.850Z,1025.73
2023-02-15T01:48:57.863Z,1025.72
2023-02-15T01:49:57.864Z,1025.71
2023-02-15T01:50:57.885Z,1025.71
2023-02-15T01:51:57.877Z,1025.67
2023-02-15T01:52:57.885Z,1025.64
2023-02-15T01:53:57.899Z,1025.65
2023-02-15T01:54:57.899Z,1025.61
2023-02-15T01:55:57.906Z,1025.56
2023-02-15T01:56:57.913Z,1025.51
2023-02-15T01:57:57.921Z,1025.49
2023-02-15T01:58:57.931Z,1025.49
2023-02-15T01:59:57.935Z,1025.48
2023-02-15T02:00:59.102Z,1025.48
2023-02-15T02:01:57.949Z,1025.46
2023-02-15T02:02:58.013Z,1025.48
2023-02-15T02:03:57.969Z,1025.45
2023-02-15T02:04:57.976Z,1025.45
2023-02-15T02:05:57.999Z,1025.45
2023-02-15T02:06:57.991Z,1025.47
2023-02-15T02:07:57.999Z,1025.45
2023-02-15T02:08:58.002Z,1025.43
2023-02-15T02:09:58.009Z,1025.41
2023-02-15T02:10:58.024Z,1025.39
2023-02-15T02:11:58.026Z,1025.38
2023-02-15T02:12:58.045Z,1025.34
2023-02-15T02:13:58.044Z,1025.38
2023-02-15T02:14:58.047Z,1025.36
2023-02-15T02:15:58.096Z,1025.34
2023-02-15T02:16:58.068Z,1025.41
2023-02-15T02:17:58.070Z,1025.36
2023-02-15T02:18:58.078Z,1025.37
2023-02-15T02:19:58.091Z,1025.37
2023-02-15T02:20:58.089Z,1025.37
2023-02-15T02:21:58.096Z,1025.36
2023-02-15T02:22:58.109Z,1025.29
2023-02-15T02:23:58.111Z,1025.33
2023-02-15T02:24:58.116Z,1025.35
2023-02-15T02:25:58.147Z,1025.35
2023-02-15T02:26:58.139Z,1025.30
2023-02-15T02:27:58.149Z,1025.32
2023-02-15T02:28:58.144Z,1025.30
2023-02-15T02:29:58.196Z,1025.32
2023-02-15T02:30:58.262Z,1025.28
2023-02-15T02:31:58.209Z,1025.30
2023-02-15T02:32:58.173Z,1025.26
2023-02-15T02:33:58.192Z,1025.26
2023-02-15T02:34:58.195Z,1025.25
2023-02-15T02:35:58.201Z,1025.25
2023-02-15T02:36:58.202Z,1025.22
2023-02-15T02:37:58.209Z,1025.18
2023-02-15T02:38:58.221Z,1025.16
2023-02-15T02:39:58.224Z,1025.13
2023-02-15T02:40:58.229Z,1025.08
2023-02-15T02:41:58.240Z,1025.09
2023-02-15T02:42:58.255Z,1025.10
2023-02-15T02:43:58.253Z,1025.10
2023-02-15T02:44:58.259Z,1025.09
2023-02-15T02:45:58.266Z,1025.08
2023-02-15T02:46:58.275Z,1025.08
2023-02-15T02:47:58.281Z,1025.04
2023-02-15T02:48:58.294Z,1025.03
2023-02-15T02:49:58.294Z,1025.03
2023-02-15T02:50:58.310Z,1025.06
2023-02-15T02:51:58.314Z,1025.00
2023-02-15T02:52:58.324Z,1025.06
2023-02-15T02:53:58.322Z,1025.03
2023-02-15T02:54:58.328Z,1025.03
2023-02-15T02:55:58.339Z,1025.04
2023-02-15T02:56:58.346Z,1025.04
2023-02-15T02:57:58.359Z,1025.04
2023-02-15T02:58:58.359Z,1025.00
2023-02-15T02:59:58.365Z,1025.02
2023-02-15T03:00:58.373Z,1025.02
2023-02-15T03:01:58.430Z,1024.99
2023-02-15T03:02:58.430Z,1024.99
2023-02-15T03:03:58.396Z,1024.94
2023-02-15T03:04:58.403Z,1024.99
2023-02-15T03:05:58.415Z,1024.95
2023-02-15T03:06:58.429Z,1024.96
2023-02-15T03:07:58.424Z,1024.96
2023-02-15T03:08:58.434Z,1024.95
2023-02-15T03:09:58.448Z,1024.93
2023-02-15T03:10:58.447Z,1024.91
2023-02-15T03:11:58.457Z,1024.91
2023-02-15T03:12:58.461Z,1024.85
2023-02-15T03:13:58.473Z,1024.90
2023-02-15T03:14:58.475Z,1024.88
2023-02-15T03:15:58.538Z,1024.87
2023-02-15T03:16:58.492Z,1024.85
2023-02-15T03:17:58.498Z,1024.81
2023-02-15T03:18:58.508Z,1024.81
2023-02-15T03:19:58.512Z,1024.85
2023-02-15T03:20:58.526Z,1024.84
2023-02-15T03:21:58.642Z,1024.83
2023-02-15T03:22:58.537Z,1024.85
2023-02-15T03:23:58.544Z,1024.83
2023-02-15T03:24:58.551Z,1024.83
2023-02-15T03:25:58.561Z,1024.81
2023-02-15T03:26:58.564Z,1024.82
2023-02-15T03:27:58.569Z,1024.79
2023-02-15T03:28:58.577Z,1024.80
2023-02-15T03:29:58.608Z,1024.77
2023-02-15T03:30:58.658Z,1024.79
2023-02-15T03:31:58.713Z,1024.80
2023-02-15T03:32:58.609Z,1024.76
2023-02-15T03:33:58.612Z,1024.80
2023-02-15T03:34:58.622Z,1024.82
2023-02-15T03:35:58.647Z,1024.80
2023-02-15T03:36:58.634Z,1024.79
2023-02-15T03:37:58.642Z,1024.77
2023-02-15T03:38:58.654Z,1024.74
2023-02-15T03:39:58.658Z,1024.76
2023-02-15T03:40:58.662Z,1024.73
2023-02-15T03:41:58.673Z,1024.79
2023-02-15T03:42:58.677Z,1024.77
2023-02-15T03:43:58.694Z,1024.76
2023-02-15T03:44:58.696Z,1024.76
2023-02-15T03:45:58.712Z,1024.73
2023-02-15T03:46:58.790Z,1024.72
2023-02-15T03:47:58.713Z,1024.76
2023-02-15T03:48:58.727Z,1024.77
2023-02-15T03:49:58.725Z,1024.77
2023-02-15T03:50:58.739Z,1024.73
2023-02-15T03:51:58.741Z,1024.72
2023-02-15T03:52:58.746Z,1024.74
2023-02-15T03:53:58.756Z,1024.73
2023-02-15T03:54:58.764Z,1024.68
2023-02-15T03:55:58.771Z,1024.68
2023-02-15T03:56:58.774Z,1024.69
2023-02-15T03:57:58.781Z,1024.65
2023-02-15T03:58:58.791Z,1024.65
2023-02-15T03:59:58.794Z,1024.62
2023-02-15T04:00:58.837Z,1024.65
2023-02-15T04:01:58.817Z,1024.57
2023-02-15T04:02:58.843Z,1024.60
2023-02-15T04:03:58.825Z,1024.60
2023-02-15T04:04:58.831Z,1024.60
2023-02-15T04:05:59.027Z,1024.59
2023-02-15T04:06:58.846Z,1024.58
2023-02-15T04:07:58.850Z,1024.60
2023-02-15T04:08:58.865Z,1024.58
2023-02-15T04:09:58.872Z,1024.57
2023-02-15T04:10:58.875Z,1024.62
2023-02-15T04:11:58.878Z,1024.62
2023-02-15T04:12:58.886Z,1024.64
2023-02-15T04:13:58.892Z,1024.60
2023-02-15T04:14:58.906Z,1024.58
2023-02-15T04:15:59.094Z,1024.54
2023-02-15T04:16:58.913Z,1024.55
2023-02-15T04:17:58.920Z,1024.55
2023-02-15T04:18:58.930Z,1024.50
2023-02-15T04:19:58.938Z,1024.52
2023-02-15T04:20:58.938Z,1024.51
2023-02-15T04:21:58.943Z,1024.50
2023-02-15T04:22:58.949Z,1024.47
2023-02-15T04:23:58.957Z,1024.47
2023-02-15T04:24:58.964Z,1024.48
2023-02-15T04:25:59.052Z,1024.48
2023-02-15T04:26:58.977Z,1024.48
2023-02-15T04:27:58.982Z,1024.50
2023-02-15T04:28:58.992Z,1024.43
2023-02-15T04:29:59.029Z,1024.46
2023-02-15T04:30:59.047Z,1024.46
2023-02-15T04:31:59.084Z,1024.46
2023-02-15T04:32:59.018Z,1024.47
2023-02-15T04:33:59.024Z,1024.48
2023-02-15T04:34:59.036Z,1024.47
2023-02-15T04:35:59.308Z,1024.43
2023-02-15T04:36:59.042Z,1024.45
2023-02-15T04:37:59.049Z,1024.44
2023-02-15T04:38:59.064Z,1024.42
2023-02-15T04:39:59.068Z,1024.44
2023-02-15T04:40:59.069Z,1024.40
2023-02-15T04:41:59.078Z,1024.38
2023-02-15T04:42:59.087Z,1024.35
2023-02-15T04:43:59.088Z,1024.36
2023-02-15T04:44:59.098Z,1024.38
2023-02-15T04:45:59.174Z,1024.36
2023-02-15T04:46:59.111Z,1024.32
2023-02-15T04:47:59.115Z,1024.33
2023-02-15T04:48:59.121Z,1024.27
2023-02-15T04:49:59.134Z,1024.24
2023-02-15T04:50:59.137Z,1024.21
2023-02-15T04:51:59.144Z,1024.20
2023-02-15T04:52:59.152Z,1024.17
2023-02-15T04:53:59.156Z,1024.16
2023-02-15T04:54:59.170Z,1024.12
2023-02-15T04:55:59.275Z,1024.13
2023-02-15T04:56:59.177Z,1024.06
2023-02-15T04:57:59.188Z,1024.03
2023-02-15T04:58:59.193Z,1024.03
2023-02-15T04:59:59.198Z,1024.03
2023-02-15T05:00:59.241Z,1023.98
2023-02-15T05:01:59.220Z,1023.97
2023-02-15T05:02:59.222Z,1023.94
2023-02-15T05:03:59.297Z,1023.93
2023-02-15T05:04:59.237Z,1023.92
2023-02-15T05:05:59.421Z,1023.89
2023-02-15T05:06:59.253Z,1023.91
2023-02-15T05:07:59.272Z,1023.88
2023-02-15T05:08:59.262Z,1023.89
2023-02-15T05:09:59.265Z,1023.85
2023-02-15T05:10:59.276Z,1023.86
2023-02-15T05:11:59.282Z,1023.86
2023-02-15T05:12:59.285Z,1023.86
2023-02-15T05:13:59.302Z,1023.87
2023-02-15T05:14:59.306Z,1023.89
2023-02-15T05:15:59.425Z,1023.87
2023-02-15T05:16:59.310Z,1023.87
2023-02-15T05:17:59.315Z,1023.89
2023-02-15T05:18:59.336Z,1023.87
2023-02-15T05:19:59.332Z,1023.88
2023-02-15T05:20:59.335Z,1023.89
2023-02-15T05:21:59.342Z,1023.89
2023-02-15T05:22:59.355Z,1023.87
2023-02-15T05:23:59.362Z,1023.89
2023-02-15T05:24:59.365Z,1023.91
2023-02-15T05:25:59.686Z,1023.88
2023-02-15T05:26:59.378Z,1023.84
2023-02-15T05:27:59.386Z,1023.88
2023-02-15T05:28:59.390Z,1023.90
2023-02-15T05:29:59.480Z,1023.89
2023-02-15T05:30:59.659Z,1023.86
2023-02-15T05:31:59.534Z,1023.92
2023-02-15T05:32:59.420Z,1023.89
2023-02-15T05:33:59.427Z,1023.91
2023-02-15T05:34:59.435Z,1023.90
2023-02-15T05:36:00.106Z,1023.92
2023-02-15T05:36:59.449Z,1023.86
2023-02-15T05:37:59.453Z,1023.81
2023-02-15T05:38:59.465Z,1023.83
2023-02-15T05:39:59.468Z,1023.78
2023-02-15T05:40:59.484Z,1023.75
2023-02-15T05:41:59.484Z,1023.73
2023-02-15T05:42:59.488Z,1023.72
2023-02-15T05:43:59.496Z,1023.75
2023-02-15T05:44:59.505Z,1023.68
2023-02-15T05:45:59.615Z,1023.69
2023-02-15T05:46:59.514Z,1023.69
2023-02-15T05:47:59.542Z,1023.72
2023-02-15T05:48:59.530Z,1023.69
2023-02-15T05:49:59.536Z,1023.70
2023-02-15T05:50:59.543Z,1023.68
2023-02-15T05:51:59.551Z,1023.70
2023-02-15T05:52:59.557Z,1023.71
2023-02-15T05:53:59.565Z,1023.72
2023-02-15T05:54:59.571Z,1023.73
2023-02-15T05:56:00.042Z,1023.68
2023-02-15T05:56:59.588Z,1023.68
2023-02-15T05:57:59.596Z,1023.71
2023-02-15T05:58:59.599Z,1023.69
2023-02-15T05:59:59.606Z,1023.74
2023-02-15T06:00:59.614Z,1023.74
2023-02-15T06:01:59.644Z,1023.72
2023-02-15T06:02:59.627Z,1023.76
2023-02-15T06:03:59.641Z,1023.73
2023-02-15T06:04:59.643Z,1023.69
2023-02-15T06:05:59.709Z,1023.69
2023-02-15T06:06:59.656Z,1023.71
2023-02-15T06:07:59.662Z,1023.69
2023-02-15T06:08:59.671Z,1023.72
2023-02-15T06:09:59.678Z,1023.68
2023-02-15T06:10:59.685Z,1023.69
2023-02-15T06:11:59.693Z,1023.72
2023-02-15T06:12:59.698Z,1023.70
2023-02-15T06:13:59.705Z,1023.72
2023-02-15T06:14:59.716Z,1023.71
2023-02-15T06:16:00.010Z,1023.73
2023-02-15T06:16:59.737Z,1023.75
2023-02-15T06:17:59.738Z,1023.72
2023-02-15T06:18:59.742Z,1023.75
2023-02-15T06:19:59.752Z,1023.74
2023-02-15T06:20:59.762Z,1023.73
2023-02-15T06:21:59.765Z,1023.73
2023-02-15T06:22:59.777Z,1023.76
2023-02-15T06:23:59.781Z,1023.73
2023-02-15T06:24:59.787Z,1023.75
2023-02-15T06:25:59.874Z,1023.77
2023-02-15T06:26:59.803Z,1023.80
2023-02-15T06:27:59.821Z,1023.81
2023-02-15T06:28:59.836Z,1023.77
2023-02-15T06:29:59.914Z,1023.80
2023-02-15T06:30:59.954Z,1023.83
2023-02-15T06:31:59.930Z,1023.79
2023-02-15T06:32:59.844Z,1023.78
2023-02-15T06:33:59.853Z,1023.73
2023-02-15T06:34:59.891Z,1023.72
2023-02-15T06:36:00.147Z,1023.71
2023-02-15T06:36:59.884Z,1023.70
2023-02-15T06:37:59.883Z,1023.66
2023-02-15T06:38:59.892Z,1023.66
2023-02-15T06:40:01.448Z,1023.69
2023-02-15T06:40:59.902Z,1023.63
2023-02-15T06:41:59.910Z,1023.64
2023-02-15T06:42:59.915Z,1023.65
2023-02-15T06:43:59.929Z,1023.58
2023-02-15T06:44:59.931Z,1023.60
2023-02-15T06:46:00.386Z,1023.55
2023-02-15T06:46:59.945Z,1023.58
2023-02-15T06:47:59.954Z,1023.52
2023-02-15T06:48:59.962Z,1023.56
2023-02-15T06:49:59.974Z,1023.56
2023-02-15T06:50:59.976Z,1023.55
2023-02-15T06:51:59.998Z,1023.59
2023-02-15T06:53:00.001Z,1023.61
2023-02-15T06:54:00.000Z,1023.62
2023-02-15T06:55:00.016Z,1023.62
2023-02-15T06:56:00.351Z,1023.61
2023-02-15T06:57:00.025Z,1023.60
2023-02-15T06:58:00.033Z,1023.63
2023-02-15T06:59:00.036Z,1023.62
2023-02-15T07:00:00.055Z,1023.62
2023-02-15T07:01:00.055Z,1023.66
2023-02-15T07:02:00.059Z,1023.62
2023-02-15T07:03:00.086Z,1023.61
2023-02-15T07:04:00.107Z,1023.60
2023-02-15T07:05:00.181Z,1023.65
2023-02-15T07:06:00.388Z,1023.61
2023-02-15T07:07:00.114Z,1023.65
2023-02-15T07:08:00.132Z,1023.67
2023-02-15T07:09:00.112Z,1023.66
2023-02-15T07:10:00.158Z,1023.63
2023-02-15T07:11:00.124Z,1023.59
2023-02-15T07:12:00.152Z,1023.61
2023-02-15T07:13:00.140Z,1023.60
2023-02-15T07:14:00.144Z,1023.53
2023-02-15T07:15:00.173Z,1023.52
2023-02-15T07:16:00.360Z,1023.53
2023-02-15T07:17:00.166Z,1023.52
2023-02-15T07:18:00.187Z,1023.49
2023-02-15T07:19:00.180Z,1023.48
2023-02-15T07:20:00.190Z,1023.48
2023-02-15T07:21:00.194Z,1023.46
2023-02-15T07:22:00.203Z,1023.46
2023-02-15T07:23:00.213Z,1023.42
2023-02-15T07:24:00.217Z,1023.42
2023-02-15T07:25:00.224Z,1023.39
2023-02-15T07:26:00.493Z,1023.42
2023-02-15T07:27:00.243Z,1023.40
2023-02-15T07:28:00.250Z,1023.40
2023-02-15T07:29:00.256Z,1023.38
2023-02-15T07:30:00.324Z,1023.43
2023-02-15T07:31:00.319Z,1023.36
2023-02-15T07:32:00.322Z,1023.31
2023-02-15T07:33:00.608Z,1023.36
2023-02-15T07:34:00.302Z,1023.33
2023-02-15T07:35:00.318Z,1023.34
2023-02-15T07:36:00.499Z,1023.36
2023-02-15T07:37:00.323Z,1023.36
2023-02-15T07:38:00.331Z,1023.38
2023-02-15T07:39:00.347Z,1023.35
2023-02-15T07:40:00.341Z,1023.31
2023-02-15T07:41:00.352Z,1023.34
2023-02-15T07:42:00.359Z,1023.36
2023-02-15T07:43:00.501Z,1023.31
2023-02-15T07:44:00.394Z,1023.34
2023-02-15T07:45:00.382Z,1023.37
2023-02-15T07:46:00.728Z,1023.38
2023-02-15T07:47:00.403Z,1023.35
2023-02-15T07:48:00.409Z,1023.35
2023-02-15T07:49:00.415Z,1023.30
2023-02-15T07:50:00.424Z,1023.30
2023-02-15T07:51:00.434Z,1023.29
2023-02-15T07:52:00.443Z,1023.26
2023-02-15T07:53:00.449Z,1023.24
2023-02-15T07:54:00.466Z,1023.27
2023-02-15T07:55:00.467Z,1023.25
2023-02-15T07:56:00.725Z,1023.25
2023-02-15T07:57:00.483Z,1023.24
2023-02-15T07:58:00.489Z,1023.26
2023-02-15T07:59:00.497Z,1023.23
2023-02-15T08:00:00.518Z,1023.21
2023-02-15T08:01:00.512Z,1023.22
2023-02-15T08:02:00.523Z,1023.20
2023-02-15T08:03:00.701Z,1023.21
2023-02-15T08:04:00.633Z,1023.18
2023-02-15T08:05:00.554Z,1023.24
2023-02-15T08:06:00.870Z,1023.22
2023-02-15T08:07:00.565Z,1023.20
2023-02-15T08:08:00.580Z,1023.13
2023-02-15T08:09:00.581Z,1023.18
2023-02-15T08:10:00.599Z,1023.18
2023-02-15T08:11:00.612Z,1023.18
2023-02-15T08:12:00.606Z,1023.18
2023-02-15T08:13:00.616Z,1023.18
2023-02-15T08:14:00.623Z,1023.18
2023-02-15T08:15:00.636Z,1023.13
2023-02-15T08:16:00.963Z,1023.18
2023-02-15T08:17:00.663Z,1023.15
2023-02-15T08:18:00.659Z,1023.11
2023-02-15T08:19:00.669Z,1023.14
2023-02-15T08:20:00.683Z,1023.11
2023-02-15T08:21:00.688Z,1023.11
2023-02-15T08:22:00.717Z,1023.11
2023-02-15T08:23:00.704Z,1023.10
2023-02-15T08:24:00.712Z,1023.15
2023-02-15T08:25:00.728Z,1023.12
2023-02-15T08:26:01.076Z,1023.12
2023-02-15T08:27:00.744Z,1023.06
2023-02-15T08:28:00.750Z,1023.12
2023-02-15T08:29:00.761Z,1023.11
2023-02-15T08:30:00.858Z,1023.10
2023-02-15T08:31:01.083Z,1023.10
2023-02-15T08:32:00.802Z,1023.11
2023-02-15T08:33:00.796Z,1023.12
2023-02-15T08:34:00.814Z,1023.09
2023-02-15T08:35:00.812Z,1023.08
2023-02-15T08:36:00.824Z,1023.06
2023-02-15T08:37:00.836Z,1023.09
2023-02-15T08:38:00.835Z,1023.04
2023-02-15T08:39:00.870Z,1023.04
2023-02-15T08:40:00.853Z,1023.05
2023-02-15T08:41:01.159Z,1023.06
2023-02-15T08:42:00.871Z,1023.08
2023-02-15T08:43:00.880Z,1023.04
2023-02-15T08:44:00.892Z,1023.07
2023-02-15T08:45:00.900Z,1023.03
2023-02-15T08:46:00.976Z,1023.01
2023-02-15T08:47:00.914Z,1023.01
2023-02-15T08:48:00.926Z,1022.98
2023-02-15T08:49:00.933Z,1022.96
2023-02-15T08:50:00.958Z,1022.92
2023-02-15T08:51:01.153Z,1022.94
2023-02-15T08:52:00.981Z,1022.88
2023-02-15T08:53:00.966Z,1022.89
2023-02-15T08:54:01.001Z,1022.90
2023-02-15T08:55:00.983Z,1022.85
2023-02-15T08:56:00.993Z,1022.86
2023-02-15T08:57:01.015Z,1022.83
2023-02-15T08:58:01.012Z,1022.80
2023-02-15T08:59:01.036Z,1022.87
2023-02-15T09:00:01.025Z,1022.78
2023-02-15T09:01:01.420Z,1022.79
2023-02-15T09:02:01.076Z,1022.79
2023-02-15T09:03:01.057Z,1022.81
2023-02-15T09:04:01.070Z,1022.75
2023-02-15T09:05:01.074Z,1022.73
2023-02-15T09:06:01.093Z,1022.67
2023-02-15T09:07:01.098Z,1022.69
2023-02-15T09:08:01.103Z,1022.70
2023-02-15T09:09:01.111Z,1022.67
2023-02-15T09:10:01.125Z,1022.68
2023-02-15T09:11:01.369Z,1022.70
2023-02-15T09:12:01.141Z,1022.66
2023-02-15T09:13:01.151Z,1022.69
2023-02-15T09:14:01.164Z,1022.66
2023-02-15T09:15:01.179Z,1022.68
2023-02-15T09:16:01.189Z,1022.69
2023-02-15T09:17:01.190Z,1022.74
2023-02-15T09:18:01.198Z,1022.69
2023-02-15T09:19:01.206Z,1022.71
2023-02-15T09:20:01.216Z,1022.67
2023-02-15T09:21:01.440Z,1022.67
2023-02-15T09:22:01.244Z,1022.66
2023-02-15T09:23:01.248Z,1022.68
2023-02-15T09:24:01.258Z,1022.67
2023-02-15T09:25:01.270Z,1022.70
2023-02-15T09:26:01.271Z,1022.64
2023-02-15T09:27:01.281Z,1022.69
2023-02-15T09:28:01.295Z,1022.68
2023-02-15T09:29:01.300Z,1022.74
2023-02-15T09:30:01.375Z,1022.72
2023-02-15T09:31:01.551Z,1022.72
2023-02-15T09:32:01.398Z,1022.72
2023-02-15T09:33:01.340Z,1022.72
2023-02-15T09:34:01.349Z,1022.74
2023-02-15T09:35:01.359Z,1022.71
2023-02-15T09:36:01.371Z,1022.74
2023-02-15T09:37:01.382Z,1022.74
2023-02-15T09:38:01.395Z,1022.70
2023-02-15T09:39:01.398Z,1022.67
2023-02-15T09:40:01.427Z,1022.73
2023-02-15T09:41:01.727Z,1022.73
2023-02-15T09:42:01.435Z,1022.73
2023-02-15T09:43:01.437Z,1022.72
2023-02-15T09:44:01.448Z,1022.83
2023-02-15T09:45:01.459Z,1022.79
2023-02-15T09:46:01.506Z,1022.79
2023-02-15T09:47:01.478Z,1022.78
2023-02-15T09:48:01.491Z,1022.76
2023-02-15T09:49:01.498Z,1022.78
2023-02-15T09:50:01.516Z,1022.76
2023-02-15T09:51:01.793Z,1022.76
2023-02-15T09:52:01.530Z,1022.78
2023-02-15T09:53:01.543Z,1022.76
2023-02-15T09:54:01.558Z,1022.71
2023-02-15T09:55:01.567Z,1022.71
2023-02-15T09:56:01.581Z,1022.70
2023-02-15T09:57:01.597Z,1022.72
2023-02-15T09:58:01.595Z,1022.68
2023-02-15T09:59:01.606Z,1022.64
2023-02-15T10:00:01.617Z,1022.66
2023-02-15T10:01:01.938Z,1022.64
2023-02-15T10:02:01.641Z,1022.63
2023-02-15T10:03:01.650Z,1022.60
2023-02-15T10:04:01.661Z,1022.61
2023-02-15T10:05:01.694Z,1022.65
2023-02-15T10:06:01.693Z,1022.60
2023-02-15T10:07:01.689Z,1022.63
2023-02-15T10:08:01.705Z,1022.69
2023-02-15T10:09:01.713Z,1022.65
2023-02-15T10:10:01.944Z,1022.66
2023-02-15T10:11:01.931Z,1022.67
2023-02-15T10:12:01.763Z,1022.72
2023-02-15T10:13:01.761Z,1022.69
2023-02-15T10:14:01.763Z,1022.68
2023-02-15T10:15:01.796Z,1022.68
2023-02-15T10:16:01.787Z,1022.69
2023-02-15T10:17:01.843Z,1022.61
2023-02-15T10:18:01.807Z,1022.60
2023-02-15T10:19:01.827Z,1022.63
2023-02-15T10:20:01.835Z,1022.63
2023-02-15T10:21:02.081Z,1022.59
2023-02-15T10:22:01.851Z,1022.59
2023-02-15T10:23:01.862Z,1022.55
2023-02-15T10:24:01.872Z,1022.58
2023-02-15T10:25:01.896Z,1022.55
2023-02-15T10:26:02.142Z,1022.49
2023-02-15T10:27:01.908Z,1022.51
2023-02-15T10:28:01.932Z,1022.54
2023-02-15T10:29:01.934Z,1022.48
2023-02-15T10:30:02.049Z,1022.42
2023-02-15T10:31:02.164Z,1022.39
2023-02-15T10:32:02.135Z,1022.40
2023-02-15T10:33:01.972Z,1022.35
2023-02-15T10:34:01.986Z,1022.35
2023-02-15T10:35:01.993Z,1022.36
2023-02-15T10:36:02.017Z,1022.30
2023-02-15T10:37:02.020Z,1022.25
2023-02-15T10:38:02.030Z,1022.23
2023-02-15T10:39:02.042Z,1022.22
2023-02-15T10:40:02.051Z,1022.27
2023-02-15T10:41:02.222Z,1022.21
2023-02-15T10:42:02.231Z,1022.27
2023-02-15T10:43:02.089Z,1022.26
2023-02-15T10:44:02.103Z,1022.22
2023-02-15T10:45:02.126Z,1022.19
2023-02-15T10:46:02.187Z,1022.16
2023-02-15T10:47:02.148Z,1022.16
2023-02-15T10:48:02.150Z,1022.15
2023-02-15T10:49:02.159Z,1022.15
2023-02-15T10:50:02.171Z,1022.17
2023-02-15T10:51:02.476Z,1022.16
2023-02-15T10:52:02.200Z,1022.13
2023-02-15T10:53:02.213Z,1022.11
2023-02-15T10:54:02.226Z,1022.16
2023-02-15T10:55:02.253Z,1022.16
2023-02-15T10:56:02.244Z,1022.10
2023-02-15T10:57:02.278Z,1022.10
2023-02-15T10:58:02.275Z,1022.09
2023-02-15T10:59:02.285Z,1022.11
2023-02-15T11:00:02.296Z,1022.11
2023-02-15T11:01:02.598Z,1022.14
2023-02-15T11:02:02.336Z,1022.10
2023-02-15T11:03:02.322Z,1022.07
2023-02-15T11:04:02.350Z,1022.01
2023-02-15T11:05:02.438Z,1022.07
2023-02-15T11:06:02.357Z,1022.02
2023-02-15T11:07:02.369Z,1021.98
2023-02-15T11:08:02.388Z,1021.97
2023-02-15T11:09:02.387Z,1021.98
2023-02-15T11:10:02.404Z,1021.97
2023-02-15T11:11:02.653Z,1021.95
2023-02-15T11:12:02.423Z,1021.92
2023-02-15T11:13:02.434Z,1021.91
2023-02-15T11:14:02.442Z,1021.88
2023-02-15T11:15:02.457Z,1021.86
2023-02-15T11:16:02.527Z,1021.86
2023-02-15T11:17:02.476Z,1021.81
2023-02-15T11:18:02.501Z,1021.80
2023-02-15T11:19:02.502Z,1021.81
2023-02-15T11:20:02.511Z,1021.79
2023-02-15T11:21:03.645Z,1021.80
2023-02-15T11:22:02.547Z,1021.76
2023-02-15T11:23:02.543Z,1021.76
2023-02-15T11:24:02.557Z,1021.73
2023-02-15T11:25:02.574Z,1021.71
2023-02-15T11:26:02.572Z,1021.73
2023-02-15T11:27:02.670Z,1021.68
2023-02-15T11:28:02.593Z,1021.67
2023-02-15T11:29:02.608Z,1021.73
2023-02-15T11:30:02.659Z,1021.69
2023-02-15T11:31:02.881Z,1021.67
2023-02-15T11:32:02.788Z,1021.65
2023-02-15T11:33:02.651Z,1021.63
2023-02-15T11:34:02.657Z,1021.63
2023-02-15T11:35:02.673Z,1021.59
2023-02-15T11:36:02.686Z,1021.58
2023-02-15T11:37:02.720Z,1021.59
2023-02-15T11:38:02.697Z,1021.61
2023-02-15T11:39:02.708Z,1021.56
2023-02-15T11:40:02.732Z,1021.49
2023-02-15T11:41:03.058Z,1021.55
2023-02-15T11:42:02.748Z,1021.54
2023-02-15T11:43:02.751Z,1021.52
2023-02-15T11:44:02.768Z,1021.51
2023-02-15T11:45:02.772Z,1021.52
2023-02-15T11:46:02.821Z,1021.47
2023-02-15T11:47:02.802Z,1021.49
2023-02-15T11:48:02.802Z,1021.50
2023-02-15T11:49:02.815Z,1021.42
2023-02-15T11:50:02.820Z,1021.50
2023-02-15T11:51:03.134Z,1021.46
2023-02-15T11:52:02.847Z,1021.47
2023-02-15T11:53:02.853Z,1021.45
2023-02-15T11:54:02.868Z,1021.50
2023-02-15T11:55:02.883Z,1021.46
2023-02-15T11:56:02.892Z,1021.48
2023-02-15T11:57:02.899Z,1021.46
2023-02-15T11:58:02.907Z,1021.44
2023-02-15T11:59:02.937Z,1021.41
2023-02-15T12:00:02.938Z,1021.41
2023-02-15T12:01:03.132Z,1021.39
2023-02-15T12:02:02.948Z,1021.39
2023-02-15T12:03:03.009Z,1021.41
2023-02-15T12:04:02.997Z,1021.37
2023-02-15T12:05:02.983Z,1021.32
2023-02-15T12:06:02.993Z,1021.35